Rp Zug — HE7351 — position and weather

sailwx.info

Track history (hours):
 
Tides and Currents Weather Stations Pressure Air Temp Water Temp Dewpoint Dewpoint Depression Visibility Wind Speed Wind Dir Waves Ship Positions

Rp Zug

Last reported at 2016-Sep-27 00:30 UTC. Time now 2016-Sep-27 10:30 UTC.
Position N 50°41' E 007°11'.

Length 110 m; draft 2.2 m.

Type: Tanker. MMSI: 269057351.

Date/timePositionNaut miles runAvg speedWind from/ knotsBaromVisibWave heightAir tempDewpointWater temp
2016-Sep-27 00:30N 50°41' E 007°11'9 0.8
2016-Sep-26 13:32N 50°47' E 007°02'107 6.7
2016-Sep-25 21:33N 49°14' E 008°23'32 1.5
2016-Sep-25 00:10N 48°46' E 007°60'11 3.9
2016-Sep-24 21:23N 48°54' E 008°09'7 3.6
2016-Sep-24 19:33N 48°59' E 008°16'4 4.1
2016-Sep-24 18:33N 49°03' E 008°19'4 4.5
2016-Sep-24 17:33N 49°07' E 008°22'4 4.1
2016-Sep-24 16:33N 49°11' E 008°23'8 4.2
2016-Sep-24 14:32N 49°18' E 008°29'101 4.0
2016-Sep-23 13:33N 50°44' E 007°07'8 2.0
2016-Sep-23 09:33N 50°51' E 006°59'0 0.0
2016-Sep-23 06:33N 50°51' E 006°59'0 0.0
2016-Sep-23 04:33N 50°51' E 006°59'0 0.0
2016-Sep-23 03:33N 50°51' E 006°59'0 0.0
2016-Sep-23 02:33N 50°51' E 006°59'0 0.0
2016-Sep-23 01:33N 50°51' E 006°59'12 2.4
2016-Sep-22 20:33N 50°41' E 007°10'184 5.2
2016-Sep-21 09:30N 47°38' E 007°33'2 2.6
2016-Sep-21 08:32N 47°36' E 007°35'0 0.0
2016-Sep-21 03:26N 47°36' E 007°35'0 0.0
2016-Sep-21 02:26N 47°36' E 007°35'0 0.0
2016-Sep-20 17:26N 47°36' E 007°35'84 3.0
2016-Sep-19 13:11N 48°57' E 008°11'3 4.0
2016-Sep-19 12:24N 48°59' E 008°15'3 4.0
2016-Sep-19 11:33N 49°01' E 008°18'9 4.6
2016-Sep-19 09:33N 49°10' E 008°22'9 4.4
2016-Sep-19 07:23N 49°19' E 008°29'3 4.0
2016-Sep-19 06:34N 49°22' E 008°30'130 4.1
2016-Sep-17 22:30N 51°14' E 006°45'  
Track history (hours):
 
Tides and Currents Weather Stations Pressure Air Temp Water Temp Dewpoint Dewpoint Depression Visibility Wind Speed Wind Dir Waves Ship Positions

Rp Zug

Last reported at 2016-Sep-27 00:30 UTC. Time now 2016-Sep-27 10:30 UTC.
Position N 50°41' E 007°11'.

Length 110 m; draft 2.2 m.

Type: Tanker. MMSI: 269057351.

Date/timePositionNaut miles runAvg speedWind from/ knotsBaromVisibWave heightAir tempDewpointWater temp
2016-Sep-27 00:30N 50°41' E 007°11'9 0.8
2016-Sep-26 13:32N 50°47' E 007°02'107 6.7
2016-Sep-25 21:33N 49°14' E 008°23'32 1.5
2016-Sep-25 00:10N 48°46' E 007°60'11 3.9
2016-Sep-24 21:23N 48°54' E 008°09'7 3.6
2016-Sep-24 19:33N 48°59' E 008°16'4 4.1
2016-Sep-24 18:33N 49°03' E 008°19'4 4.5
2016-Sep-24 17:33N 49°07' E 008°22'4 4.1
2016-Sep-24 16:33N 49°11' E 008°23'8 4.2
2016-Sep-24 14:32N 49°18' E 008°29'101 4.0
2016-Sep-23 13:33N 50°44' E 007°07'8 2.0
2016-Sep-23 09:33N 50°51' E 006°59'0 0.0
2016-Sep-23 06:33N 50°51' E 006°59'0 0.0
2016-Sep-23 04:33N 50°51' E 006°59'0 0.0
2016-Sep-23 03:33N 50°51' E 006°59'0 0.0
2016-Sep-23 02:33N 50°51' E 006°59'0 0.0
2016-Sep-23 01:33N 50°51' E 006°59'12 2.4
2016-Sep-22 20:33N 50°41' E 007°10'184 5.2
2016-Sep-21 09:30N 47°38' E 007°33'2 2.6
2016-Sep-21 08:32N 47°36' E 007°35'0 0.0
2016-Sep-21 03:26N 47°36' E 007°35'0 0.0
2016-Sep-21 02:26N 47°36' E 007°35'0 0.0
2016-Sep-20 17:26N 47°36' E 007°35'84 3.0
2016-Sep-19 13:11N 48°57' E 008°11'3 4.0
2016-Sep-19 12:24N 48°59' E 008°15'3 4.0
2016-Sep-19 11:33N 49°01' E 008°18'9 4.6
2016-Sep-19 09:33N 49°10' E 008°22'9 4.4
2016-Sep-19 07:23N 49°19' E 008°29'3 4.0
2016-Sep-19 06:34N 49°22' E 008°30'130 4.1
2016-Sep-17 22:30N 51°14' E 006°45'  

Dump ship's entire track history